^^
Your Local Weather - Clay, NY Station Historical Data
Daily Summary for March 14, 2017 Units:  English    Metric   Both
« Previous Day
Next Day »
Daily Weekly Monthly Yearly Custom
  High: Low: Average:
Temperature: 22.6 °F 15.2 °F 18.6 °F
Dew Point: 18.4 °F 5.3 °F 13.4 °F
Humidity: 89% 49% 81%
Wind Speed: 10.0mph 1.0mph 4.5mph
Wind Gust: 17.0mph - -
Wind- - SSW
Pressure: 30.24 in 29.66 in -
Precipitation: 0.00 in    
Historical Graphs
 
 
Tabular Data for March 14, 2017
Time Temperature Dew Point Pressure Wind Wind Speed Wind Gust Humidity Rainfall Rate (Hourly) solar
00:04 21.5 °F 5.3 °F 30.23 in ENE 1.0 mph 2.0 mph 49% 0.00 in 0 W/m2
00:10 21.5 °F 6.1 °F 30.24 in ENE 1.0 mph 1.0 mph 51% 0.00 in 0 W/m2
00:16 21.5 °F 5.7 °F 30.23 in NE 1.0 mph 3.0 mph 50% 0.00 in 0 W/m2
00:22 21.6 °F 6.2 °F 30.23 in NNE 1.0 mph 2.0 mph 51% 0.00 in 0 W/m2
00:28 21.6 °F 6.2 °F 30.23 in ENE 1.0 mph 3.0 mph 51% 0.00 in 0 W/m2
00:34 21.7 °F 6.3 °F 30.23 in NNE 1.0 mph 2.0 mph 51% 0.00 in 0 W/m2
00:40 21.7 °F 6.8 °F 30.22 in NE 1.0 mph 1.0 mph 52% 0.00 in 0 W/m2
00:46 21.7 °F 6.8 °F 30.22 in ENE 1.0 mph 1.0 mph 52% 0.00 in 0 W/m2
00:52 21.8 °F 6.4 °F 30.21 in ENE 1.0 mph 3.0 mph 51% 0.00 in 0 W/m2
00:58 21.9 °F 6.1 °F 30.21 in ENE 2.0 mph 3.0 mph 50% 0.00 in 0 W/m2
01:04 21.9 °F 6.1 °F 30.20 in SE 2.0 mph 2.0 mph 50% 0.00 in 0 W/m2
01:10 22.0 °F 7.0 °F 30.20 in NE 2.0 mph 3.0 mph 52% 0.00 in 0 W/m2
01:16 22.0 °F 6.6 °F 30.20 in ENE 2.0 mph 3.0 mph 51% 0.00 in 0 W/m2
01:22 22.1 °F 6.3 °F 30.21 in ENE 2.0 mph 4.0 mph 50% 0.00 in 0 W/m2
01:28 22.1 °F 5.8 °F 30.20 in ESE 3.0 mph 4.0 mph 49% 0.00 in 0 W/m2
01:34 22.2 °F 6.4 °F 30.20 in ENE 2.0 mph 3.0 mph 50% 0.00 in 0 W/m2
01:40 22.2 °F 6.4 °F 30.20 in East 2.0 mph 2.0 mph 50% 0.00 in 0 W/m2
01:46 22.2 °F 5.9 °F 30.20 in East 2.0 mph 3.0 mph 49% 0.00 in 0 W/m2
01:52 22.2 °F 5.9 °F 30.20 in ENE 3.0 mph 3.0 mph 49% 0.00 in 0 W/m2
01:58 22.2 °F 6.4 °F 30.19 in East 3.0 mph 5.0 mph 50% 0.00 in 0 W/m2
02:04 22.3 °F 6.4 °F 30.19 in ENE 3.0 mph 4.0 mph 50% 0.00 in 0 W/m2
02:10 22.4 °F 6.5 °F 30.19 in East 3.0 mph 3.0 mph 50% 0.00 in 0 W/m2
02:16 22.4 °F 7.0 °F 30.18 in ENE 3.0 mph 3.0 mph 51% 0.00 in 0 W/m2
02:22 22.4 °F 7.0 °F 30.18 in ENE 4.0 mph 7.0 mph 51% 0.00 in 0 W/m2
02:28 22.4 °F 6.5 °F 30.18 in East 5.0 mph 7.0 mph 50% 0.00 in 0 W/m2
02:34 22.4 °F 7.0 °F 30.17 in ENE 5.0 mph 5.0 mph 51% 0.00 in 0 W/m2
02:40 22.4 °F 7.0 °F 30.17 in East 4.0 mph 4.0 mph 51% 0.00 in 0 W/m2
02:46 22.4 °F 7.0 °F 30.17 in NE 4.0 mph 6.0 mph 51% 0.00 in 0 W/m2
02:52 22.4 °F 7.4 °F 30.16 in East 3.0 mph 3.0 mph 52% 0.00 in 0 W/m2
02:58 22.4 °F 7.0 °F 30.17 in NE 2.0 mph 3.0 mph 51% 0.00 in 0 W/m2
03:04 22.5 °F 7.5 °F 30.16 in NNE 2.0 mph 7.0 mph 52% 0.00 in 0 W/m2
03:10 22.6 °F 7.2 °F 30.16 in ESE 3.0 mph 3.0 mph 51% 0.00 in 0 W/m2
03:16 22.6 °F 6.7 °F 30.15 in East 4.0 mph 7.0 mph 50% 0.00 in 0 W/m2
03:22 22.6 °F 6.3 °F 30.14 in East 4.0 mph 4.0 mph 49% 0.00 in 0 W/m2
03:28 22.5 °F 6.2 °F 30.13 in ENE 3.0 mph 4.0 mph 49% 0.00 in 0 W/m2
03:34 22.5 °F 6.6 °F 30.13 in ENE 2.0 mph 4.0 mph 50% 0.00 in 0 W/m2
03:40 22.4 °F 7.0 °F 30.13 in East 3.0 mph 3.0 mph 51% 0.00 in 0 W/m2
03:46 21.7 °F 9.2 °F 30.13 in ENE 4.0 mph 9.0 mph 58% 0.00 in 0 W/m2
03:52 21.3 °F 9.6 °F 30.13 in ESE 4.0 mph 4.0 mph 60% 0.00 in 0 W/m2
03:58 21.1 °F 10.1 °F 30.13 in ENE 4.0 mph 5.0 mph 62% 0.00 in 0 W/m2
04:04 21.0 °F 10.7 °F 30.13 in ENE 3.0 mph 4.0 mph 64% 0.00 in 0 W/m2
04:10 20.8 °F 11.2 °F 30.12 in East 3.0 mph 3.0 mph 66% 0.00 in 0 W/m2
04:16 20.4 °F 12.5 °F 30.12 in East 3.0 mph 5.0 mph 71% 0.00 in 0 W/m2
04:22 19.9 °F 12.6 °F 30.12 in ESE 3.0 mph 4.0 mph 73% 0.00 in 0 W/m2
04:28 19.6 °F 13.0 °F 30.12 in ESE 2.0 mph 5.0 mph 75% 0.00 in 0 W/m2
04:34 19.4 °F 13.4 °F 30.12 in ENE 3.0 mph 6.0 mph 77% 0.00 in 0 W/m2
04:40 19.2 °F 14.0 °F 30.12 in ENE 3.0 mph 3.0 mph 80% 0.00 in 0 W/m2
04:46 19.2 °F 14.6 °F 30.12 in SE 2.0 mph 3.0 mph 82% 0.00 in 0 W/m2
04:52 19.2 °F 14.9 °F 30.12 in ENE 2.0 mph 5.0 mph 83% 0.00 in 0 W/m2
04:58 19.1 °F 15.1 °F 30.11 in ENE 3.0 mph 5.0 mph 84% 0.00 in 0 W/m2
05:04 19.2 °F 15.2 °F 30.11 in NE 4.0 mph 4.0 mph 84% 0.00 in 0 W/m2
05:10 19.3 °F 15.5 °F 30.11 in East 4.0 mph 4.0 mph 85% 0.00 in 0 W/m2
05:16 19.3 °F 15.5 °F 30.11 in NE 3.0 mph 4.0 mph 85% 0.00 in 0 W/m2
05:22 19.3 °F 15.5 °F 30.11 in ENE 5.0 mph 7.0 mph 85% 0.00 in 0 W/m2
05:28 19.2 °F 15.4 °F 30.10 in East 5.0 mph 7.0 mph 85% 0.00 in 0 W/m2
05:34 19.2 °F 15.4 °F 30.10 in East 4.0 mph 5.0 mph 85% 0.00 in 0 W/m2
05:40 19.1 °F 15.6 °F 30.10 in North 5.0 mph 5.0 mph 86% 0.00 in 0 W/m2
05:46 19.1 °F 15.6 °F 30.10 in NE 5.0 mph 6.0 mph 86% 0.00 in 0 W/m2
05:52 19.1 °F 15.6 °F 30.10 in ENE 2.0 mph 3.0 mph 86% 0.00 in 0 W/m2
05:58 19.1 °F 15.6 °F 30.10 in ENE 3.0 mph 3.0 mph 86% 0.00 in 0 W/m2
06:04 19.0 °F 15.5 °F 30.09 in East 4.0 mph 7.0 mph 86% 0.00 in 0 W/m2
06:10 19.0 °F 15.5 °F 30.09 in NNE 4.0 mph 4.0 mph 86% 0.00 in 0 W/m2
06:16 19.0 °F 15.5 °F 30.08 in East 4.0 mph 8.0 mph 86% 0.00 in 0 W/m2
06:22 18.9 °F 15.4 °F 30.07 in ESE 5.0 mph 8.0 mph 86% 0.00 in 0 W/m2
06:28 18.9 °F 15.4 °F 30.07 in ENE 4.0 mph 8.0 mph 86% 0.00 in 0 W/m2
06:34 18.9 °F 15.4 °F 30.06 in NNW 5.0 mph 10.0 mph 86% 0.00 in 0 W/m2
06:40 18.9 °F 15.4 °F 30.05 in East 5.0 mph 6.0 mph 86% 0.00 in 0 W/m2
06:46 19.0 °F 15.8 °F 30.05 in ENE 5.0 mph 7.0 mph 87% 0.00 in 0 W/m2
06:52 19.0 °F 15.8 °F 30.05 in NE 4.0 mph 7.0 mph 87% 0.00 in 0 W/m2
06:58 19.1 °F 15.9 °F 30.04 in ENE 4.0 mph 8.0 mph 87% 0.00 in 0 W/m2
07:04 19.3 °F 16.1 °F 30.05 in ENE 5.0 mph 8.0 mph 87% 0.00 in 0 W/m2
07:10 19.4 °F 16.2 °F 30.04 in NE 4.0 mph 8.0 mph 87% 0.00 in 0 W/m2
07:22 19.7 °F 16.5 °F 30.03 in East 3.0 mph 7.0 mph 87% 0.00 in 0 W/m2
07:28 19.7 °F 16.5 °F 30.02 in NE 3.0 mph 7.0 mph 87% 0.00 in 0 W/m2
07:34 19.9 °F 16.7 °F 30.02 in East 2.0 mph 6.0 mph 87% 0.00 in 0 W/m2
07:40 19.9 °F 16.7 °F 30.02 in NNE 3.0 mph 4.0 mph 87% 0.00 in 5 W/m2
07:46 20.0 °F 16.8 °F 30.02 in NE 3.0 mph 5.0 mph 87% 0.00 in 7 W/m2
07:52 20.1 °F 16.9 °F 30.02 in NNE 2.0 mph 3.0 mph 87% 0.00 in 9 W/m2
07:58 20.1 °F 16.9 °F 30.02 in ENE 2.0 mph 4.0 mph 87% 0.00 in 12 W/m2
08:04 20.0 °F 16.8 °F 30.01 in NE 2.0 mph 4.0 mph 87% 0.00 in 12 W/m2
08:10 20.0 °F 16.8 °F 30.01 in ENE 3.0 mph 4.0 mph 87% 0.00 in 12 W/m2
08:18 19.9 °F 16.7 °F 30.01 in NNE 2.0 mph 4.0 mph 87% 0.00 in 14 W/m2
08:24 20.0 °F 17.0 °F 30.01 in North 2.0 mph 3.0 mph 88% 0.00 in 14 W/m2
08:30 20.0 °F 17.0 °F 30.01 in NE 2.0 mph 2.0 mph 88% 0.00 in 14 W/m2
08:36 20.0 °F 17.0 °F 30.00 in NNE 2.0 mph 3.0 mph 88% 0.00 in 16 W/m2
08:42 20.0 °F 17.0 °F 30.00 in NE 3.0 mph 3.0 mph 88% 0.00 in 16 W/m2
08:48 20.0 °F 17.0 °F 30.00 in ENE 3.0 mph 3.0 mph 88% 0.00 in 16 W/m2
08:54 20.1 °F 17.1 °F 29.99 in NNE 2.0 mph 3.0 mph 88% 0.00 in 18 W/m2
09:00 20.0 °F 17.0 °F 29.99 in NNE 2.0 mph 2.0 mph 88% 0.00 in 18 W/m2
09:06 20.0 °F 17.0 °F 29.99 in ENE 3.0 mph 4.0 mph 88% 0.00 in 18 W/m2
09:12 20.0 °F 17.0 °F 29.99 in NE 3.0 mph 4.0 mph 88% 0.00 in 18 W/m2
09:16 20.0 °F 17.0 °F 29.98 in ENE 3.0 mph 4.0 mph 88% 0.00 in 18 W/m2
09:22 20.1 °F 17.1 °F 29.97 in NE 2.0 mph 3.0 mph 88% 0.00 in 19 W/m2
09:28 20.1 °F 17.1 °F 29.97 in NNW 3.0 mph 5.0 mph 88% 0.00 in 19 W/m2
09:34 20.2 °F 17.2 °F 29.97 in ENE 2.0 mph 4.0 mph 88% 0.00 in 21 W/m2
09:40 20.3 °F 17.3 °F 29.96 in NNE 2.0 mph 2.0 mph 88% 0.00 in 23 W/m2
09:46 20.4 °F 17.4 °F 29.96 in NNW 1.0 mph 4.0 mph 88% 0.00 in 21 W/m2
09:52 20.4 °F 17.4 °F 29.95 in NNE 2.0 mph 3.0 mph 88% 0.00 in 23 W/m2
09:58 20.5 °F 17.5 °F 29.94 in North 3.0 mph 8.0 mph 88% 0.00 in 23 W/m2
10:04 20.5 °F 17.5 °F 29.94 in North 4.0 mph 4.0 mph 88% 0.00 in 25 W/m2
10:10 20.5 °F 17.5 °F 29.93 in ENE 3.0 mph 3.0 mph 88% 0.00 in 26 W/m2
10:16 20.6 °F 17.6 °F 29.93 in NNE 3.0 mph 3.0 mph 88% 0.00 in 28 W/m2
10:22 20.7 °F 17.7 °F 29.91 in NNE 3.0 mph 3.0 mph 88% 0.00 in 32 W/m2
10:28 20.7 °F 17.7 °F 29.90 in North 3.0 mph 6.0 mph 88% 0.00 in 33 W/m2
10:34 20.6 °F 17.6 °F 29.89 in NNE 4.0 mph 8.0 mph 88% 0.00 in 33 W/m2
10:40 20.7 °F 17.7 °F 29.88 in NNE 4.0 mph 4.0 mph 88% 0.00 in 35 W/m2
10:46 20.8 °F 17.8 °F 29.89 in ENE 4.0 mph 4.0 mph 88% 0.00 in 35 W/m2
10:52 20.8 °F 17.8 °F 29.88 in NNE 4.0 mph 4.0 mph 88% 0.00 in 35 W/m2
10:58 20.9 °F 18.2 °F 29.88 in NNW 4.0 mph 4.0 mph 89% 0.00 in 33 W/m2
11:04 20.9 °F 18.2 °F 29.88 in NW 3.0 mph 4.0 mph 89% 0.00 in 32 W/m2
11:10 20.9 °F 18.2 °F 29.87 in NNW 3.0 mph 3.0 mph 89% 0.00 in 33 W/m2
11:16 20.9 °F 18.2 °F 29.87 in North 3.0 mph 5.0 mph 89% 0.00 in 37 W/m2
11:22 21.0 °F 18.3 °F 29.86 in North 3.0 mph 3.0 mph 89% 0.00 in 37 W/m2
11:28 21.1 °F 18.4 °F 29.86 in North 3.0 mph 3.0 mph 89% 0.00 in 37 W/m2
11:34 20.9 °F 18.2 °F 29.85 in NNW 3.0 mph 4.0 mph 89% 0.00 in 37 W/m2
11:40 20.5 °F 17.8 °F 29.85 in NW 3.0 mph 3.0 mph 89% 0.00 in 40 W/m2
11:46 20.3 °F 17.6 °F 29.85 in WNW 3.0 mph 3.0 mph 89% 0.00 in 42 W/m2
11:52 20.1 °F 17.1 °F 29.85 in NW 3.0 mph 3.0 mph 88% 0.00 in 42 W/m2
11:58 19.9 °F 17.2 °F 29.84 in NNW 3.0 mph 6.0 mph 89% 0.00 in 39 W/m2
12:04 19.5 °F 16.5 °F 29.83 in NNW 5.0 mph 7.0 mph 88% 0.00 in 39 W/m2
12:10 19.3 °F 16.3 °F 29.83 in NW 5.0 mph 5.0 mph 88% 0.00 in 44 W/m2
12:16 19.2 °F 16.5 °F 29.82 in NNW 4.0 mph 5.0 mph 89% 0.00 in 51 W/m2
12:22 18.7 °F 15.7 °F 29.82 in NNW 5.0 mph 5.0 mph 88% 0.00 in 53 W/m2
12:28 18.5 °F 15.8 °F 29.82 in NNW 4.0 mph 5.0 mph 89% 0.00 in 54 W/m2
12:34 18.2 °F 15.2 °F 29.80 in NNW 4.0 mph 8.0 mph 88% 0.00 in 56 W/m2
12:40 17.9 °F 15.2 °F 29.80 in NNW 4.0 mph 8.0 mph 89% 0.00 in 62 W/m2
12:46 17.7 °F 14.8 °F 29.80 in NW 4.0 mph 8.0 mph 88% 0.00 in 65 W/m2
12:52 17.7 °F 15.0 °F 29.80 in NW 5.0 mph 7.0 mph 89% 0.00 in 70 W/m2
12:58 17.8 °F 15.1 °F 29.79 in NNW 4.0 mph 7.0 mph 89% 0.00 in 72 W/m2
13:04 17.8 °F 15.1 °F 29.79 in NNE 4.0 mph 8.0 mph 89% 0.00 in 76 W/m2
13:10 17.8 °F 15.1 °F 29.78 in NNW 4.0 mph 4.0 mph 89% 0.00 in 86 W/m2
13:16 17.9 °F 15.2 °F 29.77 in NNW 5.0 mph 7.0 mph 89% 0.00 in 93 W/m2
13:22 17.9 °F 15.2 °F 29.77 in North 4.0 mph 5.0 mph 89% 0.00 in 104 W/m2
13:28 17.9 °F 15.2 °F 29.77 in NNW 5.0 mph 7.0 mph 89% 0.00 in 105 W/m2
13:34 18.0 °F 15.3 °F 29.77 in NNE 5.0 mph 6.0 mph 89% 0.00 in 105 W/m2
13:40 17.9 °F 15.2 °F 29.76 in NNW 5.0 mph 9.0 mph 89% 0.00 in 102 W/m2
13:46 17.8 °F 14.8 °F 29.75 in NW 5.0 mph 9.0 mph 88% 0.00 in 86 W/m2
13:52 17.5 °F 14.8 °F 29.74 in NNW 5.0 mph 9.0 mph 89% 0.00 in 81 W/m2
13:58 17.4 °F 14.7 °F 29.74 in WNW 7.0 mph 9.0 mph 89% 0.00 in 81 W/m2
14:04 17.3 °F 14.4 °F 29.73 in NNW 6.0 mph 7.0 mph 88% 0.00 in 79 W/m2
14:10 17.3 °F 14.4 °F 29.72 in NNW 5.0 mph 5.0 mph 88% 0.00 in 88 W/m2
14:16 17.4 °F 14.7 °F 29.72 in NNW 5.0 mph 5.0 mph 89% 0.00 in 97 W/m2
14:22 17.4 °F 14.7 °F 29.72 in NNW 5.0 mph 5.0 mph 89% 0.00 in 105 W/m2
14:28 17.4 °F 14.7 °F 29.72 in North 5.0 mph 7.0 mph 89% 0.00 in 105 W/m2
14:34 17.4 °F 14.7 °F 29.72 in North 5.0 mph 5.0 mph 89% 0.00 in 111 W/m2
14:40 17.5 °F 14.8 °F 29.72 in North 6.0 mph 6.0 mph 89% 0.00 in 114 W/m2
14:46 17.5 °F 14.8 °F 29.71 in North 6.0 mph 6.0 mph 89% 0.00 in 114 W/m2
14:52 17.4 °F 14.7 °F 29.71 in NNW 5.0 mph 7.0 mph 89% 0.00 in 105 W/m2
14:58 17.4 °F 14.7 °F 29.71 in NNW 6.0 mph 9.0 mph 89% 0.00 in 102 W/m2
15:04 17.3 °F 14.6 °F 29.71 in NNW 6.0 mph 6.0 mph 89% 0.00 in 98 W/m2
15:10 17.3 °F 14.6 °F 29.70 in North 6.0 mph 6.0 mph 89% 0.00 in 93 W/m2
15:16 17.1 °F 14.4 °F 29.69 in NNW 7.0 mph 15.0 mph 89% 0.00 in 91 W/m2
15:22 17.1 °F 14.4 °F 29.69 in WNW 7.0 mph 13.0 mph 89% 0.00 in 86 W/m2
15:28 17.1 °F 14.4 °F 29.69 in NNW 7.0 mph 13.0 mph 89% 0.00 in 83 W/m2
15:34 17.0 °F 14.3 °F 29.68 in North 7.0 mph 17.0 mph 89% 0.00 in 86 W/m2
15:40 16.9 °F 14.0 °F 29.68 in North 8.0 mph 8.0 mph 88% 0.00 in 79 W/m2
15:46 16.8 °F 14.1 °F 29.68 in NNW 8.0 mph 11.0 mph 89% 0.00 in 62 W/m2
15:52 16.6 °F 13.7 °F 29.68 in NNW 9.0 mph 11.0 mph 88% 0.00 in 40 W/m2
15:58 16.5 °F 13.6 °F 29.68 in NNW 8.0 mph 13.0 mph 88% 0.00 in 39 W/m2
16:04 16.4 °F 13.7 °F 29.68 in North 8.0 mph 10.0 mph 89% 0.00 in 47 W/m2
16:10 16.4 °F 13.7 °F 29.68 in NNW 8.0 mph 10.0 mph 89% 0.00 in 53 W/m2
16:16 16.3 °F 13.6 °F 29.68 in NW 7.0 mph 10.0 mph 89% 0.00 in 51 W/m2
16:22 16.2 °F 13.3 °F 29.68 in North 7.0 mph 10.0 mph 88% 0.00 in 44 W/m2
16:28 16.0 °F 13.1 °F 29.67 in North 8.0 mph 11.0 mph 88% 0.00 in 42 W/m2
16:34 15.9 °F 13.0 °F 29.67 in North 7.0 mph 13.0 mph 88% 0.00 in 39 W/m2
16:40 15.7 °F 12.8 °F 29.67 in NNW 9.0 mph 9.0 mph 88% 0.00 in 33 W/m2
16:46 15.5 °F 12.6 °F 29.66 in NNW 8.0 mph 9.0 mph 88% 0.00 in 32 W/m2
16:52 15.4 °F 12.5 °F 29.66 in NNW 7.0 mph 9.0 mph 88% 0.00 in 30 W/m2
16:58 15.4 °F 12.5 °F 29.66 in NNW 8.0 mph 9.0 mph 88% 0.00 in 26 W/m2
17:04 15.4 °F 12.5 °F 29.66 in NW 8.0 mph 8.0 mph 88% 0.00 in 28 W/m2
17:10 15.3 °F 12.4 °F 29.66 in NNW 8.0 mph 8.0 mph 88% 0.00 in 30 W/m2
17:16 15.2 °F 12.3 °F 29.66 in NNW 8.0 mph 8.0 mph 88% 0.00 in 32 W/m2
17:22 15.2 °F 12.3 °F 29.66 in NNW 8.0 mph 8.0 mph 88% 0.00 in 35 W/m2
17:28 15.3 °F 12.6 °F 29.66 in NNW 7.0 mph 8.0 mph 89% 0.00 in 35 W/m2
17:34 15.2 °F 12.3 °F 29.66 in North 8.0 mph 9.0 mph 88% 0.00 in 37 W/m2
17:40 15.2 °F 12.3 °F 29.66 in NW 7.0 mph 7.0 mph 88% 0.00 in 42 W/m2
17:46 15.2 °F 12.3 °F 29.66 in NNW 7.0 mph 8.0 mph 88% 0.00 in 40 W/m2
17:52 15.2 °F 12.3 °F 29.66 in North 6.0 mph 7.0 mph 88% 0.00 in 35 W/m2
17:58 15.2 °F 12.5 °F 29.66 in NNW 6.0 mph 7.0 mph 89% 0.00 in 26 W/m2
18:04 15.2 °F 12.5 °F 29.67 in NNW 6.0 mph 7.0 mph 89% 0.00 in 19 W/m2
18:10 15.2 °F 12.5 °F 29.67 in NNW 6.0 mph 6.0 mph 89% 0.00 in 16 W/m2
18:16 15.2 °F 12.3 °F 29.67 in NW 7.0 mph 7.0 mph 88% 0.00 in 14 W/m2
18:22 15.2 °F 12.3 °F 29.68 in NNW 7.0 mph 10.0 mph 88% 0.00 in 12 W/m2
18:28 15.2 °F 12.3 °F 29.67 in WNW 6.0 mph 10.0 mph 88% 0.00 in 11 W/m2
18:34 15.2 °F 12.5 °F 29.68 in NNW 6.0 mph 6.0 mph 89% 0.00 in 9 W/m2
18:40 15.2 °F 12.5 °F 29.68 in NNW 6.0 mph 6.0 mph 89% 0.00 in 7 W/m2
18:46 15.4 °F 12.7 °F 29.67 in NW 7.0 mph 13.0 mph 89% 0.00 in 7 W/m2
18:52 15.6 °F 12.9 °F 29.67 in North 8.0 mph 8.0 mph 89% 0.00 in 5 W/m2
18:58 15.8 °F 13.1 °F 29.66 in NNW 8.0 mph 12.0 mph 89% 0.00 in 0 W/m2
19:04 16.0 °F 13.3 °F 29.66 in North 9.0 mph 15.0 mph 89% 0.00 in 0 W/m2
19:10 16.1 °F 13.4 °F 29.66 in NNW 10.0 mph 10.0 mph 89% 0.00 in 0 W/m2
19:16 16.1 °F 13.4 °F 29.67 in North 10.0 mph 12.0 mph 89% 0.00 in 0 W/m2
19:22 16.1 °F 13.4 °F 29.67 in NNW 8.0 mph 8.0 mph 89% 0.00 in 0 W/m2
19:28 16.1 °F 13.4 °F 29.67 in NW 6.0 mph 8.0 mph 89% 0.00 in 0 W/m2
19:34 16.2 °F 13.5 °F 29.67 in NW 6.0 mph 9.0 mph 89% 0.00 in 0 W/m2
19:40 16.3 °F 13.6 °F 29.66 in North 6.0 mph 13.0 mph 89% 0.00 in 0 W/m2
19:46 16.2 °F 13.5 °F 29.67 in NW 7.0 mph 13.0 mph 89% 0.00 in 0 W/m2
19:52 16.1 °F 13.4 °F 29.67 in NNW 6.0 mph 7.0 mph 89% 0.00 in 0 W/m2
19:58 16.1 °F 13.4 °F 29.68 in NNW 4.0 mph 8.0 mph 89% 0.00 in 0 W/m2
20:04 16.2 °F 13.5 °F 29.68 in NW 5.0 mph 6.0 mph 89% 0.00 in 0 W/m2
20:10 16.2 °F 13.5 °F 29.68 in NNW 6.0 mph 6.0 mph 89% 0.00 in 0 W/m2
20:16 16.2 °F 13.5 °F 29.68 in NW 5.0 mph 8.0 mph 89% 0.00 in 0 W/m2
20:22 16.2 °F 13.5 °F 29.68 in NNW 6.0 mph 6.0 mph 89% 0.00 in 0 W/m2
20:28 16.2 °F 13.5 °F 29.68 in NNW 6.0 mph 10.0 mph 89% 0.00 in 0 W/m2
20:34 16.2 °F 13.5 °F 29.68 in NW 7.0 mph 8.0 mph 89% 0.00 in 0 W/m2
20:40 16.1 °F 13.4 °F 29.68 in NW 7.0 mph 7.0 mph 89% 0.00 in 0 W/m2
20:46 16.1 °F 13.4 °F 29.68 in NNW 6.0 mph 9.0 mph 89% 0.00 in 0 W/m2
20:52 16.1 °F 13.4 °F 29.68 in NW 6.0 mph 14.0 mph 89% 0.00 in 0 W/m2
20:58 16.2 °F 13.5 °F 29.68 in NW 6.0 mph 14.0 mph 89% 0.00 in 0 W/m2
21:04 16.2 °F 13.5 °F 29.68 in NW 4.0 mph 7.0 mph 89% 0.00 in 0 W/m2
21:10 16.3 °F 13.6 °F 29.68 in WNW 6.0 mph 6.0 mph 89% 0.00 in 0 W/m2
21:16 16.3 °F 13.6 °F 29.68 in NW 6.0 mph 13.0 mph 89% 0.00 in 0 W/m2
21:22 16.3 °F 13.6 °F 29.68 in NW 5.0 mph 7.0 mph 89% 0.00 in 0 W/m2
21:28 16.3 °F 13.6 °F 29.68 in NW 5.0 mph 7.0 mph 89% 0.00 in 0 W/m2
21:34 16.2 °F 13.5 °F 29.68 in NNW 5.0 mph 8.0 mph 89% 0.00 in 0 W/m2
21:40 16.2 °F 13.5 °F 29.69 in WNW 5.0 mph 8.0 mph 89% 0.00 in 0 W/m2
21:46 16.2 °F 13.5 °F 29.68 in NNW 7.0 mph 8.0 mph 89% 0.00 in 0 W/m2
21:52 16.1 °F 13.4 °F 29.68 in North 5.0 mph 7.0 mph 89% 0.00 in 0 W/m2
21:58 16.1 °F 13.4 °F 29.68 in NW 6.0 mph 8.0 mph 89% 0.00 in 0 W/m2
22:04 16.1 °F 13.4 °F 29.68 in NW 6.0 mph 12.0 mph 89% 0.00 in 0 W/m2
22:10 16.1 °F 13.4 °F 29.68 in NW 6.0 mph 7.0 mph 89% 0.00 in 0 W/m2
22:16 16.2 °F 13.5 °F 29.68 in North 6.0 mph 9.0 mph 89% 0.00 in 0 W/m2
22:22 16.2 °F 13.5 °F 29.68 in NW 5.0 mph 9.0 mph 89% 0.00 in 0 W/m2
22:28 16.2 °F 13.5 °F 29.69 in NW 5.0 mph 9.0 mph 89% 0.00 in 0 W/m2
22:34 16.2 °F 13.5 °F 29.68 in NNW 5.0 mph 6.0 mph 89% 0.00 in 0 W/m2
22:40 16.3 °F 13.6 °F 29.68 in NW 4.0 mph 5.0 mph 89% 0.00 in 0 W/m2
22:46 16.3 °F 13.6 °F 29.68 in NW 5.0 mph 8.0 mph 89% 0.00 in 0 W/m2
22:52 16.3 °F 13.6 °F 29.68 in NW 6.0 mph 6.0 mph 89% 0.00 in 0 W/m2
23:04 16.3 °F 13.6 °F 29.68 in NW 5.0 mph 6.0 mph 89% 0.00 in 0 W/m2
23:12 16.3 °F 13.6 °F 29.67 in North 4.0 mph 6.0 mph 89% 0.00 in 0 W/m2
23:18 16.3 °F 13.6 °F 29.67 in NW 4.0 mph 6.0 mph 89% 0.00 in 0 W/m2
23:24 16.3 °F 13.6 °F 29.67 in NW 3.0 mph 4.0 mph 89% 0.00 in 0 W/m2
23:30 16.4 °F 13.7 °F 29.67 in West 4.0 mph 4.0 mph 89% 0.00 in 0 W/m2
23:36 16.3 °F 13.6 °F 29.66 in NNW 3.0 mph 5.0 mph 89% 0.00 in 0 W/m2
23:42 16.3 °F 13.6 °F 29.66 in NW 3.0 mph 3.0 mph 89% 0.00 in 0 W/m2
23:48 16.3 °F 13.6 °F 29.66 in NW 3.0 mph 3.0 mph 89% 0.00 in 0 W/m2
23:54 16.3 °F 13.6 °F 29.66 in NW 5.0 mph 10.0 mph 89% 0.00 in 0 W/m2
Country Meadow, Clay, NY, USA
Compliments of Weather Underground - 2 mb